sensor_id;sensor_type;location;lat;lon;timestamp;P1;durP1;ratioP1;P2;durP2;ratioP2
7477;SDS011;3780;42.424;25.636;2023-05-07T09:08:56;3.72;;;1.42;;
7477;SDS011;3780;42.424;25.636;2023-05-07T09:11:23;2.58;;;1.20;;
7477;SDS011;3780;42.424;25.636;2023-05-07T09:13:53;2.22;;;1.33;;
7477;SDS011;3780;42.424;25.636;2023-05-07T09:16:19;2.58;;;1.20;;
7477;SDS011;3780;42.424;25.636;2023-05-07T09:18:45;2.40;;;0.93;;
7477;SDS011;3780;42.424;25.636;2023-05-07T09:21:14;5.40;;;1.13;;
7477;SDS011;3780;42.424;25.636;2023-05-07T09:23:40;5.38;;;1.20;;
7477;SDS011;3780;42.424;25.636;2023-05-07T09:26:06;3.45;;;1.20;;
7477;SDS011;3780;42.424;25.636;2023-05-07T09:28:37;2.15;;;0.98;;
7477;SDS011;3780;42.424;25.636;2023-05-07T09:31:03;4.32;;;1.30;;
7477;SDS011;3780;42.424;25.636;2023-05-07T09:33:28;2.22;;;1.30;;
7477;SDS011;3780;42.424;25.636;2023-05-07T09:35:55;4.93;;;1.13;;
7477;SDS011;3780;42.424;25.636;2023-05-07T09:38:20;6.38;;;1.40;;
7477;SDS011;3780;42.424;25.636;2023-05-07T09:40:46;2.63;;;1.30;;
7477;SDS011;3780;42.424;25.636;2023-05-07T09:43:13;5.13;;;1.40;;
7477;SDS011;3780;42.424;25.636;2023-05-07T09:45:38;2.45;;;1.20;;
7477;SDS011;3780;42.424;25.636;2023-05-07T09:48:04;3.33;;;1.38;;
7477;SDS011;3780;42.424;25.636;2023-05-07T09:50:40;1.90;;;1.02;;
7477;SDS011;3780;42.424;25.636;2023-05-07T09:53:09;2.63;;;1.50;;
7477;SDS011;3780;42.424;25.636;2023-05-07T09:55:34;5.65;;;1.30;;
7477;SDS011;3780;42.424;25.636;2023-05-07T09:58:00;3.00;;;1.17;;
7477;SDS011;3780;42.424;25.636;2023-05-07T10:00:27;4.10;;;1.65;;
7477;SDS011;3780;42.424;25.636;2023-05-07T10:02:53;2.05;;;1.08;;
7477;SDS011;3780;42.424;25.636;2023-05-07T10:05:21;3.10;;;1.33;;
7477;SDS011;3780;42.424;25.636;2023-05-07T10:07:47;3.58;;;1.25;;
7477;SDS011;3780;42.424;25.636;2023-05-07T10:10:12;4.50;;;1.35;;
7477;SDS011;3780;42.424;25.636;2023-05-07T10:12:39;5.10;;;1.45;;
7477;SDS011;3780;42.424;25.636;2023-05-07T10:15:08;5.15;;;1.25;;
7477;SDS011;3780;42.424;25.636;2023-05-07T10:17:40;7.20;;;2.00;;
7477;SDS011;3780;42.424;25.636;2023-05-07T10:20:06;2.88;;;1.10;;
7477;SDS011;3780;42.424;25.636;2023-05-07T10:22:33;7.82;;;1.20;;
7477;SDS011;3780;42.424;25.636;2023-05-07T10:24:59;2.10;;;1.17;;
7477;SDS011;3780;42.424;25.636;2023-05-07T10:27:27;1.92;;;0.95;;
7477;SDS011;3780;42.424;25.636;2023-05-07T10:30:15;4.37;;;1.20;;
7477;SDS011;3780;42.424;25.636;2023-05-07T10:32:47;4.30;;;1.30;;
7477;SDS011;3780;42.424;25.636;2023-05-07T10:35:20;3.65;;;1.33;;
7477;SDS011;3780;42.424;25.636;2023-05-07T10:37:45;4.07;;;1.35;;
7477;SDS011;3780;42.424;25.636;2023-05-07T10:40:11;4.70;;;1.13;;
7477;SDS011;3780;42.424;25.636;2023-05-07T10:42:37;4.15;;;1.10;;
7477;SDS011;3780;42.424;25.636;2023-05-07T10:45:14;3.67;;;1.30;;
7477;SDS011;3780;42.424;25.636;2023-05-07T10:50:25;5.57;;;1.40;;
7477;SDS011;3780;42.424;25.636;2023-05-07T10:55:34;2.20;;;1.52;;
7477;SDS011;3780;42.424;25.636;2023-05-07T10:58:22;2.45;;;1.50;;
7477;SDS011;3780;42.424;25.636;2023-05-07T11:00:45;8.48;;;1.40;;
7477;SDS011;3780;42.424;25.636;2023-05-07T11:03:10;5.15;;;1.27;;
7477;SDS011;3780;42.424;25.636;2023-05-07T11:05:36;3.80;;;1.45;;
7477;SDS011;3780;42.424;25.636;2023-05-07T11:08:02;2.85;;;1.25;;
7477;SDS011;3780;42.424;25.636;2023-05-07T11:13:11;4.05;;;1.10;;
7477;SDS011;3780;42.424;25.636;2023-05-07T11:15:38;2.63;;;1.10;;
7477;SDS011;3780;42.424;25.636;2023-05-07T11:18:03;1.85;;;1.10;;
7477;SDS011;3780;42.424;25.636;2023-05-07T11:20:48;1.67;;;1.08;;
7477;SDS011;3780;42.424;25.636;2023-05-07T11:28:30;3.65;;;1.25;;
7477;SDS011;3780;42.424;25.636;2023-05-07T11:30:56;2.65;;;0.98;;
7477;SDS011;3780;42.424;25.636;2023-05-07T11:33:21;5.43;;;1.42;;
7477;SDS011;3780;42.424;25.636;2023-05-07T11:35:47;6.50;;;1.40;;
7477;SDS011;3780;42.424;25.636;2023-05-07T11:38:13;3.50;;;1.00;;
7477;SDS011;3780;42.424;25.636;2023-05-07T11:40:51;5.70;;;1.80;;
7477;SDS011;3780;42.424;25.636;2023-05-07T11:43:16;4.47;;;1.40;;
7477;SDS011;3780;42.424;25.636;2023-05-07T11:45:42;4.50;;;1.35;;
7477;SDS011;3780;42.424;25.636;2023-05-07T11:48:07;3.75;;;1.10;;
7477;SDS011;3780;42.424;25.636;2023-05-07T11:50:33;2.33;;;1.30;;
7477;SDS011;3780;42.424;25.636;2023-05-07T11:52:58;4.68;;;1.55;;
7477;SDS011;3780;42.424;25.636;2023-05-07T11:55:24;2.10;;;1.10;;
7477;SDS011;3780;42.424;25.636;2023-05-07T11:57:50;5.90;;;1.55;;
7477;SDS011;3780;42.424;25.636;2023-05-07T12:00:15;4.20;;;1.13;;
7477;SDS011;3780;42.424;25.636;2023-05-07T12:02:42;7.53;;;1.40;;
7477;SDS011;3780;42.424;25.636;2023-05-07T12:05:07;2.33;;;1.33;;
7477;SDS011;3780;42.424;25.636;2023-05-07T12:07:33;4.05;;;1.40;;
7477;SDS011;3780;42.424;25.636;2023-05-07T12:09:58;2.63;;;1.13;;
7477;SDS011;3780;42.424;25.636;2023-05-07T12:12:23;3.80;;;1.67;;
7477;SDS011;3780;42.424;25.636;2023-05-07T12:14:49;3.00;;;1.10;;
7477;SDS011;3780;42.424;25.636;2023-05-07T12:17:14;3.47;;;1.58;;
7477;SDS011;3780;42.424;25.636;2023-05-07T12:19:41;2.53;;;1.20;;
7477;SDS011;3780;42.424;25.636;2023-05-07T12:22:10;2.33;;;1.30;;
7477;SDS011;3780;42.424;25.636;2023-05-07T12:24:45;2.67;;;1.55;;
7477;SDS011;3780;42.424;25.636;2023-05-07T12:27:11;3.35;;;1.60;;
7477;SDS011;3780;42.424;25.636;2023-05-07T12:29:36;4.90;;;1.60;;
7477;SDS011;3780;42.424;25.636;2023-05-07T12:32:05;3.13;;;1.20;;
7477;SDS011;3780;42.424;25.636;2023-05-07T12:34:31;2.67;;;1.30;;
7477;SDS011;3780;42.424;25.636;2023-05-07T12:36:56;3.17;;;1.38;;
7477;SDS011;3780;42.424;25.636;2023-05-07T12:39:24;1.98;;;1.13;;
7477;SDS011;3780;42.424;25.636;2023-05-07T12:41:57;2.80;;;1.30;;
7477;SDS011;3780;42.424;25.636;2023-05-07T12:44:24;3.78;;;1.20;;
7477;SDS011;3780;42.424;25.636;2023-05-07T12:46:49;2.83;;;1.40;;
7477;SDS011;3780;42.424;25.636;2023-05-07T12:49:15;6.15;;;1.30;;
7477;SDS011;3780;42.424;25.636;2023-05-07T12:51:40;4.72;;;1.55;;
7477;SDS011;3780;42.424;25.636;2023-05-07T12:54:05;7.13;;;1.73;;
7477;SDS011;3780;42.424;25.636;2023-05-07T12:56:31;2.13;;;1.30;;
7477;SDS011;3780;42.424;25.636;2023-05-07T12:58:59;3.63;;;1.25;;
7477;SDS011;3780;42.424;25.636;2023-05-07T13:01:28;5.00;;;1.70;;
7477;SDS011;3780;42.424;25.636;2023-05-07T13:03:54;4.00;;;1.70;;
7477;SDS011;3780;42.424;25.636;2023-05-07T13:06:19;3.67;;;1.50;;
7477;SDS011;3780;42.424;25.636;2023-05-07T13:08:44;4.38;;;1.83;;
7477;SDS011;3780;42.424;25.636;2023-05-07T13:11:10;5.28;;;1.77;;
7477;SDS011;3780;42.424;25.636;2023-05-07T13:13:36;2.30;;;1.40;;
7477;SDS011;3780;42.424;25.636;2023-05-07T13:16:02;4.47;;;1.40;;
7477;SDS011;3780;42.424;25.636;2023-05-07T13:18:29;5.05;;;1.58;;
7477;SDS011;3780;42.424;25.636;2023-05-07T13:20:54;8.18;;;1.63;;
7477;SDS011;3780;42.424;25.636;2023-05-07T13:23:20;3.03;;;1.38;;
7477;SDS011;3780;42.424;25.636;2023-05-07T13:25:45;2.22;;;1.20;;
7477;SDS011;3780;42.424;25.636;2023-05-07T13:28:11;11.43;;;4.30;;
7477;SDS011;3780;42.424;25.636;2023-05-07T13:30:37;3.38;;;1.85;;
7477;SDS011;3780;42.424;25.636;2023-05-07T13:33:02;6.50;;;1.60;;
7477;SDS011;3780;42.424;25.636;2023-05-07T13:35:27;1.92;;;1.13;;
7477;SDS011;3780;42.424;25.636;2023-05-07T13:37:53;4.43;;;1.30;;
7477;SDS011;3780;42.424;25.636;2023-05-07T13:40:19;1.95;;;1.23;;
7477;SDS011;3780;42.424;25.636;2023-05-07T13:42:45;5.05;;;1.50;;
7477;SDS011;3780;42.424;25.636;2023-05-07T13:45:10;2.80;;;1.25;;
7477;SDS011;3780;42.424;25.636;2023-05-07T13:47:39;3.45;;;1.40;;
7477;SDS011;3780;42.424;25.636;2023-05-07T13:50:04;2.08;;;1.23;;
7477;SDS011;3780;42.424;25.636;2023-05-07T13:52:30;6.30;;;1.55;;
7477;SDS011;3780;42.424;25.636;2023-05-07T13:54:55;2.25;;;1.48;;
7477;SDS011;3780;42.424;25.636;2023-05-07T13:57:21;6.38;;;1.52;;
7477;SDS011;3780;42.424;25.636;2023-05-07T13:59:46;2.63;;;1.13;;
7477;SDS011;3780;42.424;25.636;2023-05-07T14:02:12;3.00;;;1.50;;
7477;SDS011;3780;42.424;25.636;2023-05-07T14:04:37;4.53;;;1.35;;
7477;SDS011;3780;42.424;25.636;2023-05-07T14:07:02;4.90;;;1.80;;
7477;SDS011;3780;42.424;25.636;2023-05-07T14:09:28;3.78;;;1.60;;
7477;SDS011;3780;42.424;25.636;2023-05-07T14:11:53;4.32;;;1.45;;
7477;SDS011;3780;42.424;25.636;2023-05-07T14:14:18;2.80;;;1.60;;
7477;SDS011;3780;42.424;25.636;2023-05-07T14:16:44;4.85;;;1.33;;
7477;SDS011;3780;42.424;25.636;2023-05-07T14:19:10;4.80;;;1.50;;
7477;SDS011;3780;42.424;25.636;2023-05-07T14:21:35;3.17;;;1.50;;
7477;SDS011;3780;42.424;25.636;2023-05-07T14:24:00;5.47;;;1.60;;
7477;SDS011;3780;42.424;25.636;2023-05-07T14:26:26;1.98;;;1.20;;
7477;SDS011;3780;42.424;25.636;2023-05-07T14:28:52;6.28;;;1.25;;
7477;SDS011;3780;42.424;25.636;2023-05-07T14:31:17;5.35;;;1.83;;
7477;SDS011;3780;42.424;25.636;2023-05-07T14:33:43;5.03;;;1.58;;
7477;SDS011;3780;42.424;25.636;2023-05-07T14:36:08;4.70;;;1.35;;
7477;SDS011;3780;42.424;25.636;2023-05-07T14:38:33;16.65;;;3.70;;
7477;SDS011;3780;42.424;25.636;2023-05-07T14:40:59;7.22;;;2.72;;
7477;SDS011;3780;42.424;25.636;2023-05-07T14:43:24;3.30;;;1.42;;
7477;SDS011;3780;42.424;25.636;2023-05-07T14:45:49;4.07;;;1.42;;
7477;SDS011;3780;42.424;25.636;2023-05-07T14:48:15;3.67;;;1.40;;
7477;SDS011;3780;42.424;25.636;2023-05-07T14:50:43;3.08;;;1.58;;
7477;SDS011;3780;42.424;25.636;2023-05-07T14:53:08;7.22;;;1.40;;
7477;SDS011;3780;42.424;25.636;2023-05-07T14:55:34;3.60;;;1.20;;
7477;SDS011;3780;42.424;25.636;2023-05-07T14:58:00;3.63;;;1.45;;
7477;SDS011;3780;42.424;25.636;2023-05-07T15:00:25;3.42;;;1.50;;
7477;SDS011;3780;42.424;25.636;2023-05-07T15:02:50;6.38;;;2.45;;
7477;SDS011;3780;42.424;25.636;2023-05-07T15:05:16;3.95;;;2.45;;
7477;SDS011;3780;42.424;25.636;2023-05-07T15:07:42;3.28;;;1.80;;
7477;SDS011;3780;42.424;25.636;2023-05-07T15:10:07;4.78;;;1.63;;
7477;SDS011;3780;42.424;25.636;2023-05-07T15:12:33;5.50;;;1.52;;
7477;SDS011;3780;42.424;25.636;2023-05-07T15:14:58;2.53;;;1.20;;
7477;SDS011;3780;42.424;25.636;2023-05-07T15:17:23;2.60;;;1.40;;
7477;SDS011;3780;42.424;25.636;2023-05-07T15:19:49;2.88;;;1.10;;
7477;SDS011;3780;42.424;25.636;2023-05-07T15:22:14;3.75;;;1.20;;
7477;SDS011;3780;42.424;25.636;2023-05-07T15:24:39;2.33;;;1.38;;
7477;SDS011;3780;42.424;25.636;2023-05-07T15:27:05;4.45;;;1.20;;
7477;SDS011;3780;42.424;25.636;2023-05-07T15:29:31;3.88;;;1.38;;
7477;SDS011;3780;42.424;25.636;2023-05-07T15:31:56;1.83;;;1.17;;
7477;SDS011;3780;42.424;25.636;2023-05-07T15:34:22;3.25;;;1.30;;
7477;SDS011;3780;42.424;25.636;2023-05-07T15:36:49;5.45;;;1.70;;
7477;SDS011;3780;42.424;25.636;2023-05-07T15:39:14;4.28;;;1.52;;
7477;SDS011;3780;42.424;25.636;2023-05-07T15:41:40;3.95;;;1.45;;
7477;SDS011;3780;42.424;25.636;2023-05-07T15:44:05;3.38;;;1.40;;
7477;SDS011;3780;42.424;25.636;2023-05-07T15:46:30;3.97;;;1.20;;
7477;SDS011;3780;42.424;25.636;2023-05-07T15:48:56;2.10;;;1.05;;
7477;SDS011;3780;42.424;25.636;2023-05-07T15:51:21;4.55;;;1.40;;
7477;SDS011;3780;42.424;25.636;2023-05-07T15:53:47;3.10;;;1.42;;
7477;SDS011;3780;42.424;25.636;2023-05-07T15:56:12;5.70;;;1.30;;
7477;SDS011;3780;42.424;25.636;2023-05-07T15:58:38;4.85;;;1.40;;
7477;SDS011;3780;42.424;25.636;2023-05-07T16:01:03;4.30;;;1.30;;
7477;SDS011;3780;42.424;25.636;2023-05-07T16:03:29;2.53;;;1.60;;
7477;SDS011;3780;42.424;25.636;2023-05-07T16:05:55;3.13;;;1.52;;
7477;SDS011;3780;42.424;25.636;2023-05-07T16:08:26;4.07;;;1.30;;
7477;SDS011;3780;42.424;25.636;2023-05-07T16:10:51;4.35;;;1.65;;
7477;SDS011;3780;42.424;25.636;2023-05-07T16:13:17;5.97;;;1.60;;
7477;SDS011;3780;42.424;25.636;2023-05-07T16:15:45;4.68;;;1.42;;
7477;SDS011;3780;42.424;25.636;2023-05-07T16:18:11;3.55;;;1.30;;
7477;SDS011;3780;42.424;25.636;2023-05-07T16:20:40;6.78;;;1.50;;
7477;SDS011;3780;42.424;25.636;2023-05-07T16:23:05;4.45;;;1.40;;
7477;SDS011;3780;42.424;25.636;2023-05-07T16:25:31;5.22;;;2.65;;
7477;SDS011;3780;42.424;25.636;2023-05-07T16:27:56;2.45;;;1.30;;
7477;SDS011;3780;42.424;25.636;2023-05-07T16:30:21;4.65;;;1.42;;
7477;SDS011;3780;42.424;25.636;2023-05-07T16:32:47;2.65;;;1.38;;
7477;SDS011;3780;42.424;25.636;2023-05-07T16:35:12;6.03;;;1.65;;
7477;SDS011;3780;42.424;25.636;2023-05-07T16:37:40;2.42;;;1.30;;
7477;SDS011;3780;42.424;25.636;2023-05-07T16:40:06;4.50;;;1.45;;
7477;SDS011;3780;42.424;25.636;2023-05-07T16:42:33;2.85;;;1.42;;
7477;SDS011;3780;42.424;25.636;2023-05-07T16:44:58;9.70;;;2.60;;
7477;SDS011;3780;42.424;25.636;2023-05-07T16:47:24;3.30;;;1.45;;
7477;SDS011;3780;42.424;25.636;2023-05-07T16:49:50;3.47;;;1.90;;
7477;SDS011;3780;42.424;25.636;2023-05-07T16:52:15;4.28;;;1.77;;
7477;SDS011;3780;42.424;25.636;2023-05-07T16:54:40;8.95;;;3.03;;
7477;SDS011;3780;42.424;25.636;2023-05-07T16:57:06;3.80;;;1.40;;
7477;SDS011;3780;42.424;25.636;2023-05-07T16:59:31;5.90;;;1.60;;
7477;SDS011;3780;42.424;25.636;2023-05-07T17:01:57;3.42;;;1.70;;
7477;SDS011;3780;42.424;25.636;2023-05-07T17:04:23;4.72;;;1.90;;
7477;SDS011;3780;42.424;25.636;2023-05-07T17:06:48;5.95;;;1.48;;
7477;SDS011;3780;42.424;25.636;2023-05-07T17:09:13;4.10;;;1.40;;
7477;SDS011;3780;42.424;25.636;2023-05-07T17:11:38;5.75;;;1.63;;
7477;SDS011;3780;42.424;25.636;2023-05-07T17:14:04;5.35;;;1.45;;
7477;SDS011;3780;42.424;25.636;2023-05-07T17:16:29;3.78;;;1.50;;
7477;SDS011;3780;42.424;25.636;2023-05-07T17:18:54;4.78;;;1.85;;
7477;SDS011;3780;42.424;25.636;2023-05-07T17:21:20;5.30;;;1.92;;
7477;SDS011;3780;42.424;25.636;2023-05-07T17:23:45;5.40;;;1.88;;
7477;SDS011;3780;42.424;25.636;2023-05-07T17:26:11;3.90;;;2.03;;
7477;SDS011;3780;42.424;25.636;2023-05-07T17:28:37;7.35;;;2.70;;
7477;SDS011;3780;42.424;25.636;2023-05-07T17:31:03;5.50;;;2.58;;
7477;SDS011;3780;42.424;25.636;2023-05-07T17:33:28;8.60;;;3.03;;
7477;SDS011;3780;42.424;25.636;2023-05-07T17:35:53;8.07;;;2.72;;
7477;SDS011;3780;42.424;25.636;2023-05-07T17:38:19;8.65;;;3.17;;
7477;SDS011;3780;42.424;25.636;2023-05-07T17:40:44;5.63;;;2.97;;
7477;SDS011;3780;42.424;25.636;2023-05-07T17:43:10;8.98;;;2.90;;
7477;SDS011;3780;42.424;25.636;2023-05-07T17:45:35;6.15;;;2.90;;
7477;SDS011;3780;42.424;25.636;2023-05-07T18:00:07;6.67;;;2.43;;
7477;SDS011;3780;42.424;25.636;2023-05-07T18:02:34;10.63;;;2.50;;
7477;SDS011;3780;42.424;25.636;2023-05-07T18:04:59;6.93;;;2.45;;
7477;SDS011;3780;42.424;25.636;2023-05-07T18:07:24;4.60;;;2.33;;
7477;SDS011;3780;42.424;25.636;2023-05-07T18:09:50;9.38;;;2.30;;
7477;SDS011;3780;42.424;25.636;2023-05-07T18:12:15;6.90;;;2.30;;
7477;SDS011;3780;42.424;25.636;2023-05-07T18:14:40;5.63;;;2.42;;
7477;SDS011;3780;42.424;25.636;2023-05-07T18:17:06;7.65;;;2.33;;
7477;SDS011;3780;42.424;25.636;2023-05-07T18:19:31;7.28;;;2.72;;
7477;SDS011;3780;42.424;25.636;2023-05-07T18:21:56;6.53;;;2.40;;
7477;SDS011;3780;42.424;25.636;2023-05-07T18:24:22;8.02;;;2.88;;
7477;SDS011;3780;42.424;25.636;2023-05-07T18:26:47;5.80;;;2.63;;
7477;SDS011;3780;42.424;25.636;2023-05-07T18:29:13;7.28;;;2.78;;
7477;SDS011;3780;42.424;25.636;2023-05-07T18:31:38;5.13;;;2.63;;
7477;SDS011;3780;42.424;25.636;2023-05-07T18:34:04;6.93;;;2.85;;
7477;SDS011;3780;42.424;25.636;2023-05-07T18:36:30;7.30;;;2.40;;
7477;SDS011;3780;42.424;25.636;2023-05-07T18:38:55;7.10;;;2.05;;
7477;SDS011;3780;42.424;25.636;2023-05-07T18:41:20;5.32;;;2.35;;
7477;SDS011;3780;42.424;25.636;2023-05-07T18:43:46;8.23;;;2.47;;
7477;SDS011;3780;42.424;25.636;2023-05-07T18:46:12;4.35;;;2.70;;
7477;SDS011;3780;42.424;25.636;2023-05-07T18:48:37;6.03;;;2.72;;
7477;SDS011;3780;42.424;25.636;2023-05-07T18:51:02;4.18;;;2.70;;
7477;SDS011;3780;42.424;25.636;2023-05-07T18:53:28;7.32;;;2.38;;
7477;SDS011;3780;42.424;25.636;2023-05-07T18:55:53;4.93;;;2.28;;
7477;SDS011;3780;42.424;25.636;2023-05-07T18:58:18;8.77;;;2.28;;
7477;SDS011;3780;42.424;25.636;2023-05-07T19:00:45;7.05;;;2.22;;
7477;SDS011;3780;42.424;25.636;2023-05-07T19:03:11;9.90;;;2.20;;
7477;SDS011;3780;42.424;25.636;2023-05-07T19:05:37;5.15;;;2.00;;
7477;SDS011;3780;42.424;25.636;2023-05-07T19:08:02;4.95;;;1.80;;
7477;SDS011;3780;42.424;25.636;2023-05-07T19:10:28;6.07;;;2.35;;
7477;SDS011;3780;42.424;25.636;2023-05-07T19:12:53;5.10;;;1.90;;
7477;SDS011;3780;42.424;25.636;2023-05-07T19:15:19;3.60;;;1.70;;
7477;SDS011;3780;42.424;25.636;2023-05-07T19:17:46;4.57;;;1.90;;
7477;SDS011;3780;42.424;25.636;2023-05-07T19:20:11;5.75;;;1.95;;
7477;SDS011;3780;42.424;25.636;2023-05-07T19:22:37;6.72;;;2.22;;
7477;SDS011;3780;42.424;25.636;2023-05-07T19:25:02;5.13;;;2.00;;
7477;SDS011;3780;42.424;25.636;2023-05-07T19:27:28;4.95;;;2.13;;
7477;SDS011;3780;42.424;25.636;2023-05-07T19:29:53;4.65;;;2.17;;
7477;SDS011;3780;42.424;25.636;2023-05-07T19:32:18;9.60;;;3.15;;
7477;SDS011;3780;42.424;25.636;2023-05-07T19:34:45;5.57;;;2.22;;
7477;SDS011;3780;42.424;25.636;2023-05-07T19:37:10;5.47;;;2.40;;
7477;SDS011;3780;42.424;25.636;2023-05-07T19:39:35;5.93;;;2.33;;
7477;SDS011;3780;42.424;25.636;2023-05-07T19:42:01;4.97;;;2.40;;
7477;SDS011;3780;42.424;25.636;2023-05-07T19:44:26;4.45;;;1.88;;
7477;SDS011;3780;42.424;25.636;2023-05-07T19:46:52;4.82;;;2.15;;
7477;SDS011;3780;42.424;25.636;2023-05-07T19:49:17;4.95;;;2.30;;
7477;SDS011;3780;42.424;25.636;2023-05-07T19:51:42;5.80;;;1.55;;
7477;SDS011;3780;42.424;25.636;2023-05-07T19:54:07;5.40;;;1.70;;
7477;SDS011;3780;42.424;25.636;2023-05-07T19:56:33;3.63;;;1.90;;
7477;SDS011;3780;42.424;25.636;2023-05-07T19:58:58;8.57;;;2.30;;
7477;SDS011;3780;42.424;25.636;2023-05-07T20:01:23;8.55;;;2.17;;
7477;SDS011;3780;42.424;25.636;2023-05-07T20:03:49;5.55;;;2.08;;
7477;SDS011;3780;42.424;25.636;2023-05-07T20:06:14;5.15;;;2.30;;
7477;SDS011;3780;42.424;25.636;2023-05-07T20:08:39;7.28;;;2.53;;
7477;SDS011;3780;42.424;25.636;2023-05-07T20:11:07;4.63;;;1.85;;
7477;SDS011;3780;42.424;25.636;2023-05-07T20:13:33;4.45;;;2.15;;
7477;SDS011;3780;42.424;25.636;2023-05-07T20:15:59;4.45;;;2.28;;
7477;SDS011;3780;42.424;25.636;2023-05-07T20:18:25;4.00;;;1.80;;
7477;SDS011;3780;42.424;25.636;2023-05-07T20:20:51;5.43;;;1.80;;
7477;SDS011;3780;42.424;25.636;2023-05-07T20:23:16;6.13;;;2.05;;
7477;SDS011;3780;42.424;25.636;2023-05-07T20:25:42;8.18;;;2.17;;
7477;SDS011;3780;42.424;25.636;2023-05-07T20:28:07;4.28;;;1.90;;
7477;SDS011;3780;42.424;25.636;2023-05-07T20:30:33;6.65;;;1.90;;
7477;SDS011;3780;42.424;25.636;2023-05-07T20:32:58;4.53;;;1.88;;
7477;SDS011;3780;42.424;25.636;2023-05-07T20:35:23;1.90;;;1.35;;
7477;SDS011;3780;42.424;25.636;2023-05-07T20:37:49;4.45;;;2.10;;
7477;SDS011;3780;42.424;25.636;2023-05-07T20:40:14;4.50;;;1.80;;
7477;SDS011;3780;42.424;25.636;2023-05-07T20:42:39;4.78;;;2.00;;
7477;SDS011;3780;42.424;25.636;2023-05-07T20:45:06;5.63;;;2.20;;
7477;SDS011;3780;42.424;25.636;2023-05-07T20:47:32;5.03;;;1.95;;
7477;SDS011;3780;42.424;25.636;2023-05-07T20:49:57;5.72;;;1.92;;
7477;SDS011;3780;42.424;25.636;2023-05-07T20:52:23;6.47;;;2.00;;
7477;SDS011;3780;42.424;25.636;2023-05-07T20:54:48;5.88;;;2.10;;
7477;SDS011;3780;42.424;25.636;2023-05-07T20:57:14;6.97;;;2.03;;
7477;SDS011;3780;42.424;25.636;2023-05-07T20:59:39;4.80;;;1.77;;
7477;SDS011;3780;42.424;25.636;2023-05-07T21:02:05;5.88;;;1.40;;
7477;SDS011;3780;42.424;25.636;2023-05-07T21:04:31;3.13;;;1.58;;
7477;SDS011;3780;42.424;25.636;2023-05-07T21:06:58;5.03;;;1.48;;
7477;SDS011;3780;42.424;25.636;2023-05-07T21:09:23;6.88;;;1.92;;
7477;SDS011;3780;42.424;25.636;2023-05-07T21:11:48;8.80;;;2.08;;
7477;SDS011;3780;42.424;25.636;2023-05-07T21:14:14;4.40;;;1.73;;
7477;SDS011;3780;42.424;25.636;2023-05-07T21:16:39;5.55;;;1.80;;
7477;SDS011;3780;42.424;25.636;2023-05-07T21:19:06;5.07;;;1.60;;
7477;SDS011;3780;42.424;25.636;2023-05-07T21:21:31;6.65;;;1.70;;
7477;SDS011;3780;42.424;25.636;2023-05-07T21:23:57;4.25;;;1.48;;
7477;SDS011;3780;42.424;25.636;2023-05-07T21:26:22;4.65;;;1.60;;
7477;SDS011;3780;42.424;25.636;2023-05-07T21:28:48;4.43;;;1.60;;
7477;SDS011;3780;42.424;25.636;2023-05-07T21:31:13;4.50;;;1.80;;
7477;SDS011;3780;42.424;25.636;2023-05-07T21:33:39;5.80;;;1.60;;
7477;SDS011;3780;42.424;25.636;2023-05-07T21:36:04;3.22;;;2.28;;
7477;SDS011;3780;42.424;25.636;2023-05-07T21:38:30;4.15;;;1.55;;
7477;SDS011;3780;42.424;25.636;2023-05-07T21:40:55;4.13;;;1.52;;
7477;SDS011;3780;42.424;25.636;2023-05-07T21:43:21;3.97;;;1.40;;
7477;SDS011;3780;42.424;25.636;2023-05-07T21:45:46;4.53;;;1.52;;
7477;SDS011;3780;42.424;25.636;2023-05-07T21:48:12;3.58;;;1.50;;
7477;SDS011;3780;42.424;25.636;2023-05-07T21:50:37;3.30;;;1.48;;
7477;SDS011;3780;42.424;25.636;2023-05-07T21:53:03;5.35;;;1.65;;
7477;SDS011;3780;42.424;25.636;2023-05-07T21:55:28;4.47;;;1.30;;
7477;SDS011;3780;42.424;25.636;2023-05-07T21:57:53;4.22;;;2.45;;
7477;SDS011;3780;42.424;25.636;2023-05-07T22:00:19;3.72;;;1.38;;
7477;SDS011;3780;42.424;25.636;2023-05-07T22:02:44;4.25;;;1.88;;
7477;SDS011;3780;42.424;25.636;2023-05-07T22:05:09;3.80;;;1.50;;
7477;SDS011;3780;42.424;25.636;2023-05-07T22:07:35;4.53;;;1.50;;
7477;SDS011;3780;42.424;25.636;2023-05-07T22:10:00;3.58;;;1.75;;
7477;SDS011;3780;42.424;25.636;2023-05-07T22:12:26;2.58;;;1.40;;
7477;SDS011;3780;42.424;25.636;2023-05-07T22:14:51;4.45;;;1.52;;
7477;SDS011;3780;42.424;25.636;2023-05-07T22:17:16;4.45;;;1.60;;
7477;SDS011;3780;42.424;25.636;2023-05-07T22:19:41;4.82;;;2.47;;
7477;SDS011;3780;42.424;25.636;2023-05-07T22:22:07;5.13;;;2.03;;
7477;SDS011;3780;42.424;25.636;2023-05-07T22:24:32;2.45;;;1.50;;
7477;SDS011;3780;42.424;25.636;2023-05-07T22:26:57;4.05;;;1.73;;
7477;SDS011;3780;42.424;25.636;2023-05-07T22:29:23;5.55;;;1.85;;
7477;SDS011;3780;42.424;25.636;2023-05-07T22:31:48;2.95;;;1.17;;
7477;SDS011;3780;42.424;25.636;2023-05-07T22:34:14;4.13;;;1.35;;
7477;SDS011;3780;42.424;25.636;2023-05-07T22:36:39;4.85;;;1.60;;
7477;SDS011;3780;42.424;25.636;2023-05-07T22:39:05;3.35;;;1.20;;
7477;SDS011;3780;42.424;25.636;2023-05-07T22:41:32;3.40;;;1.58;;
7477;SDS011;3780;42.424;25.636;2023-05-07T22:43:58;4.43;;;1.42;;
7477;SDS011;3780;42.424;25.636;2023-05-07T22:46:24;3.13;;;1.50;;
7477;SDS011;3780;42.424;25.636;2023-05-07T22:48:49;5.05;;;1.42;;
7477;SDS011;3780;42.424;25.636;2023-05-07T22:51:15;6.00;;;1.42;;
7477;SDS011;3780;42.424;25.636;2023-05-07T22:53:40;5.00;;;1.58;;
7477;SDS011;3780;42.424;25.636;2023-05-07T22:56:05;4.97;;;1.40;;
7477;SDS011;3780;42.424;25.636;2023-05-07T22:58:31;4.00;;;1.70;;
7477;SDS011;3780;42.424;25.636;2023-05-07T23:00:57;3.70;;;1.77;;
7477;SDS011;3780;42.424;25.636;2023-05-07T23:03:22;2.83;;;1.38;;
7477;SDS011;3780;42.424;25.636;2023-05-07T23:05:47;3.17;;;1.25;;
7477;SDS011;3780;42.424;25.636;2023-05-07T23:08:13;3.38;;;1.40;;
7477;SDS011;3780;42.424;25.636;2023-05-07T23:10:38;3.92;;;1.77;;
7477;SDS011;3780;42.424;25.636;2023-05-07T23:13:03;5.38;;;2.15;;
7477;SDS011;3780;42.424;25.636;2023-05-07T23:15:28;5.50;;;1.52;;
7477;SDS011;3780;42.424;25.636;2023-05-07T23:17:54;3.08;;;1.70;;
7477;SDS011;3780;42.424;25.636;2023-05-07T23:20:19;5.53;;;2.10;;
7477;SDS011;3780;42.424;25.636;2023-05-07T23:22:45;4.22;;;1.65;;
7477;SDS011;3780;42.424;25.636;2023-05-07T23:25:10;3.85;;;1.90;;
7477;SDS011;3780;42.424;25.636;2023-05-07T23:27:35;2.63;;;1.67;;
7477;SDS011;3780;42.424;25.636;2023-05-07T23:30:01;5.80;;;1.60;;
7477;SDS011;3780;42.424;25.636;2023-05-07T23:32:26;3.38;;;1.80;;
7477;SDS011;3780;42.424;25.636;2023-05-07T23:34:52;3.17;;;1.70;;
7477;SDS011;3780;42.424;25.636;2023-05-07T23:37:19;4.90;;;1.35;;
7477;SDS011;3780;42.424;25.636;2023-05-07T23:39:45;2.67;;;1.60;;
7477;SDS011;3780;42.424;25.636;2023-05-07T23:42:10;4.05;;;1.45;;
7477;SDS011;3780;42.424;25.636;2023-05-07T23:44:35;4.47;;;1.50;;
7477;SDS011;3780;42.424;25.636;2023-05-07T23:47:01;4.50;;;1.52;;
7477;SDS011;3780;42.424;25.636;2023-05-07T23:49:26;3.63;;;2.08;;
7477;SDS011;3780;42.424;25.636;2023-05-07T23:51:51;3.22;;;1.33;;
7477;SDS011;3780;42.424;25.636;2023-05-07T23:54:16;5.15;;;1.70;;
7477;SDS011;3780;42.424;25.636;2023-05-07T23:56:42;4.75;;;1.45;;
7477;SDS011;3780;42.424;25.636;2023-05-07T23:59:07;4.90;;;1.98;;
